Flight Track Log - Related Links

Times and Time Zones

All times are in EDT time to prevent confusion due to time zone crossing. See the JZA7807 flight status page for this flight to view local times or setup timezone preferences in your user account.

Time Position Orientation Groundspeed Altitude Reporting Facility
EDT Latitude Longitude Course Direction KTS MPH feet Rate Location/Type
Fri 10:29:22 AM 43.6833 -79.6333 North 110 127 1,600  Level Toronto Center
Fri 10:30:22 AM 43.7167 -79.6333 360° North 140 161 2,500 800 Climbing Toronto Center
Fri 10:31:22 AM 43.7667 -79.6500 346° North 160 184 3,200 750 Climbing Toronto Center
Fri 10:32:22 AM 43.8167 -79.6500 360° North 170 196 4,000 550 Climbing Toronto Center
Fri 10:33:00 AM 43.9959 -79.6833 North  Level FlightAware Approximate
Fri 10:33:22 AM 43.8667 -79.6500 360° North 190 219 4,300  Level Toronto Center
Fri 10:34:00 AM 44.0619 -79.6988 350° North  Level FlightAware Approximate
Fri 10:34:22 AM 43.9167 -79.6833 334° Northwest 180 207 5,400  Level Toronto Center
Fri 10:35:00 AM 44.1287 -79.7000 North  Level FlightAware Approximate
Fri 10:35:22 AM 43.9667 -79.6833 360° North 180 207 6,300  Level Toronto Center
Fri 10:36:22 AM 44.0167 -79.7000 347° North 170 196 7,200 850 Climbing Toronto Center
Fri 10:37:22 AM 44.0500 -79.7000 360° North 180 207 8,000 850 Climbing Toronto Center
Fri 10:38:22 AM 44.1000 -79.7333 334° Northwest 180 207 8,900 850 Climbing Toronto Center
Fri 10:39:22 AM 44.1500 -79.7500 347° North 180 207 9,700 800 Climbing Toronto Center
Fri 10:40:22 AM 44.2000 -79.7667 347° North 180 207 10,500 900 Climbing Toronto Center
Fri 10:41:22 AM 44.2500 -79.8000 334° Northwest 180 207 11,500 900 Climbing Toronto Center
Fri 10:42:22 AM 44.3000 -79.8000 360° North 180 207 12,300 900 Climbing Toronto Center
Fri 10:43:22 AM 44.3500 -79.8167 347° North 180 207 13,300 850 Climbing Toronto Center
Fri 10:44:22 AM 44.3833 -79.8500 324° Northwest 170 196 14,000 350 Climbing Toronto Center
Fri 10:45:22 AM 44.4500 -79.8667 350° North 190 219 14,000  Level Toronto Center
Fri 10:46:22 AM 44.5000 -79.8833 347° North 210 242 14,000  Level Toronto Center
Fri 10:47:22 AM 44.5500 -79.9167 335° Northwest 220 253 14,000  Level Toronto Center
Fri 10:48:22 AM 44.6167 -79.9333 350° North 220 253 14,000  Level Toronto Center
Fri 10:49:22 AM 44.6667 -79.9667 335° Northwest 220 253 14,000  Level Toronto Center
Fri 10:50:22 AM 44.7333 -79.9833 350° North 220 253 14,000  Level Toronto Center
Fri 10:51:22 AM 44.8000 -80.0167 340° North 220 253 14,000  Level Toronto Center
Fri 10:52:22 AM 44.8500 -80.0333 347° North 220 253 14,000  Level Toronto Center
Fri 10:53:22 AM 44.9167 -80.0500 350° North 220 253 14,000  Level Toronto Center
Fri 10:54:22 AM 44.9667 -80.0833 335° Northwest 220 253 14,000  Level Toronto Center
Fri 10:55:22 AM 45.0333 -80.1000 350° North 220 253 14,000  Level Toronto Center
Fri 10:56:22 AM 45.0833 -80.1333 335° Northwest 220 253 14,000 50 Level Toronto Center
Fri 10:57:22 AM 45.1500 -80.1500 350° North 220 253 14,100 50 Climbing Toronto Center
Fri 10:58:22 AM 45.2000 -80.1833 335° Northwest 220 253 14,100 -50 Level Toronto Center
Fri 10:59:22 AM 45.2667 -80.2000 350° North 230 265 14,000 -50 Descending Toronto Center
Fri 11:00:22 AM 45.3333 -80.2333 341° North 230 265 14,000  Level Toronto Center
Fri 11:01:22 AM 45.3833 -80.2500 347° North 230 265 14,000  Level Toronto Center
Fri 11:02:22 AM 45.4500 -80.2667 350° North 230 265 14,000  Level Toronto Center
Fri 11:03:22 AM 45.5167 -80.3000 341° North 230 265 14,000  Level Toronto Center
Fri 11:04:22 AM 45.5667 -80.3167 347° North 230 265 14,000  Level Toronto Center
Fri 11:05:22 AM 45.6333 -80.3667 332° Northwest 240 276 14,000  Level Toronto Center
Fri 11:06:22 AM 45.7000 -80.4167 332° Northwest 230 265 14,000  Level Toronto Center
Fri 11:07:22 AM 45.7667 -80.4500 341° North 240 276 14,000  Level Toronto Center
Fri 11:08:22 AM 45.8167 -80.5000 325° Northwest 240 276 14,000  Level Toronto Center
Fri 11:09:22 AM 45.8833 -80.5167 350° North 240 276 14,000  Level Toronto Center
Fri 11:10:22 AM 45.9333 -80.5667 325° Northwest 240 276 14,000  Level Toronto Center
Fri 11:11:22 AM 46.0000 -80.6000 341° North 240 276 14,000 -400 Level Toronto Center
Fri 11:12:22 AM 46.0667 -80.6333 341° North 240 276 13,200 -1,100 Descending Toronto Center
Fri 11:13:22 AM 46.1333 -80.6833 333° Northwest 270 311 11,800 -1,500 Descending Toronto Center
Fri 11:14:22 AM 46.2000 -80.7333 333° Northwest 270 311 10,200 -1,450 Descending Toronto Center
Fri 11:15:22 AM 46.2667 -80.7667 341° North 260 299 8,900 -1,350 Descending Toronto Center
Fri 11:16:22 AM 46.3167 -80.8167 325° Northwest 230 265 7,500 -1,250 Descending Toronto Center
Fri 11:17:22 AM 46.3833 -80.8333 350° North 220 253 6,400 -1,150 Descending Toronto Center
Fri 11:18:22 AM 46.4333 -80.8833 325° Northwest 220 253 5,200 -1,100 Descending Toronto Center
Fri 11:19:22 AM 46.4833 -80.8833 360° North 190 219 4,200 -1,000 Descending Toronto Center
Fri 11:20:22 AM 46.5333 -80.8667 13° North 180 207 3,200 -1,000 Descending Toronto Center
Fri 11:21:22 AM 46.5667 -80.8167 46° Northeast 170 196 2,200 -750 Descending Toronto Center
Fri 11:22:22 AM 46.6000 -80.8000 19° North 150 173 1,700 -500 Descending Toronto Center

Login

Don't have an account? Register now (free) for customized features, flight alerts, and more!